sensor_id;sensor_type;location;lat;lon;timestamp;pressure;altitude;pressure_sealevel;temperature;humidity
29569;BME280;16501;51.462;14.346;2022-11-15T00:00:24;100189.75;;;5.26;100.00
29569;BME280;16501;51.462;14.346;2022-11-15T00:02:52;100166.28;;;4.98;100.00
29569;BME280;16501;51.462;14.346;2022-11-15T00:05:17;100159.25;;;4.94;100.00
29569;BME280;16501;51.462;14.346;2022-11-15T00:07:42;100189.97;;;5.03;100.00
29569;BME280;16501;51.462;14.346;2022-11-15T00:10:08;100200.44;;;5.12;100.00
29569;BME280;16501;51.462;14.346;2022-11-15T00:12:33;100144.06;;;4.82;100.00
29569;BME280;16501;51.462;14.346;2022-11-15T00:14:58;100124.03;;;4.74;100.00
29569;BME280;16501;51.462;14.346;2022-11-15T00:17:24;100171.97;;;5.07;100.00
29569;BME280;16501;51.462;14.346;2022-11-15T00:19:49;100174.66;;;5.11;100.00
29569;BME280;16501;51.462;14.346;2022-11-15T00:22:14;100126.53;;;4.68;100.00
29569;BME280;16501;51.462;14.346;2022-11-15T00:24:39;100154.88;;;4.93;100.00
29569;BME280;16501;51.462;14.346;2022-11-15T00:27:05;100149.59;;;4.98;100.00
29569;BME280;16501;51.462;14.346;2022-11-15T00:29:30;100175.34;;;5.15;100.00
29569;BME280;16501;51.462;14.346;2022-11-15T00:31:55;100162.88;;;5.07;100.00
29569;BME280;16501;51.462;14.346;2022-11-15T00:34:20;100174.81;;;5.20;100.00
29569;BME280;16501;51.462;14.346;2022-11-15T00:36:46;100173.25;;;5.19;100.00
29569;BME280;16501;51.462;14.346;2022-11-15T00:39:11;100165.69;;;5.20;100.00
29569;BME280;16501;51.462;14.346;2022-11-15T00:41:36;100127.38;;;4.98;100.00
29569;BME280;16501;51.462;14.346;2022-11-15T00:44:01;100122.25;;;4.97;100.00
29569;BME280;16501;51.462;14.346;2022-11-15T00:46:27;100137.75;;;5.10;100.00
29569;BME280;16501;51.462;14.346;2022-11-15T00:48:52;100142.16;;;5.24;100.00
29569;BME280;16501;51.462;14.346;2022-11-15T00:51:17;100150.63;;;5.34;100.00
29569;BME280;16501;51.462;14.346;2022-11-15T00:53:42;100127.34;;;5.27;100.00
29569;BME280;16501;51.462;14.346;2022-11-15T00:56:08;100090.34;;;5.01;100.00
29569;BME280;16501;51.462;14.346;2022-11-15T00:58:33;100155.13;;;5.44;100.00
29569;BME280;16501;51.462;14.346;2022-11-15T01:01:06;100119.75;;;5.15;100.00
29569;BME280;16501;51.462;14.346;2022-11-15T01:03:33;100157.56;;;5.42;100.00
29569;BME280;16501;51.462;14.346;2022-11-15T01:05:59;100150.44;;;5.41;100.00
29569;BME280;16501;51.462;14.346;2022-11-15T01:08:25;100123.13;;;5.23;100.00
29569;BME280;16501;51.462;14.346;2022-11-15T01:10:50;100139.00;;;5.22;100.00
29569;BME280;16501;51.462;14.346;2022-11-15T01:13:15;100128.19;;;5.12;100.00
29569;BME280;16501;51.462;14.346;2022-11-15T01:15:41;100135.78;;;5.24;100.00
29569;BME280;16501;51.462;14.346;2022-11-15T01:18:06;100101.63;;;5.10;100.00
29569;BME280;16501;51.462;14.346;2022-11-15T01:20:32;100139.28;;;5.28;100.00
29569;BME280;16501;51.462;14.346;2022-11-15T01:22:57;100130.03;;;5.31;100.00
29569;BME280;16501;51.462;14.346;2022-11-15T01:25:22;100068.91;;;5.02;100.00
29569;BME280;16501;51.462;14.346;2022-11-15T01:27:48;100125.38;;;5.28;100.00
29569;BME280;16501;51.462;14.346;2022-11-15T01:30:13;100098.84;;;5.10;100.00
29569;BME280;16501;51.462;14.346;2022-11-15T01:32:38;100116.88;;;5.19;100.00
29569;BME280;16501;51.462;14.346;2022-11-15T01:35:04;100112.94;;;5.03;100.00
29569;BME280;16501;51.462;14.346;2022-11-15T01:37:29;100116.00;;;5.22;100.00
29569;BME280;16501;51.462;14.346;2022-11-15T01:39:54;100109.56;;;5.25;100.00
29569;BME280;16501;51.462;14.346;2022-11-15T01:42:19;100108.00;;;5.24;100.00
29569;BME280;16501;51.462;14.346;2022-11-15T01:44:48;100100.63;;;5.17;100.00
29569;BME280;16501;51.462;14.346;2022-11-15T01:47:25;100078.66;;;4.94;100.00
29569;BME280;16501;51.462;14.346;2022-11-15T01:49:56;100076.66;;;4.94;100.00
29569;BME280;16501;51.462;14.346;2022-11-15T01:52:25;100111.50;;;5.12;100.00
29569;BME280;16501;51.462;14.346;2022-11-15T01:54:55;100104.66;;;5.16;100.00
29569;BME280;16501;51.462;14.346;2022-11-15T01:57:25;100094.53;;;5.22;100.00
29569;BME280;16501;51.462;14.346;2022-11-15T01:59:50;100045.44;;;4.90;100.00
29569;BME280;16501;51.462;14.346;2022-11-15T02:02:16;100071.84;;;5.11;100.00
29569;BME280;16501;51.462;14.346;2022-11-15T02:04:46;100089.25;;;5.28;100.00
29569;BME280;16501;51.462;14.346;2022-11-15T02:07:15;100099.44;;;5.31;100.00
29569;BME280;16501;51.462;14.346;2022-11-15T02:09:41;100043.84;;;4.89;100.00
29569;BME280;16501;51.462;14.346;2022-11-15T02:12:08;100084.13;;;5.26;100.00
29569;BME280;16501;51.462;14.346;2022-11-15T02:14:35;100063.81;;;5.00;100.00
29569;BME280;16501;51.462;14.346;2022-11-15T02:17:26;100046.78;;;4.98;100.00
29569;BME280;16501;51.462;14.346;2022-11-15T02:20:20;100080.41;;;5.17;100.00
29569;BME280;16501;51.462;14.346;2022-11-15T02:23:26;100082.66;;;5.22;100.00
29569;BME280;16501;51.462;14.346;2022-11-15T02:28:53;100077.09;;;5.22;100.00
29569;BME280;16501;51.462;14.346;2022-11-15T02:31:31;100071.97;;;5.20;100.00
29569;BME280;16501;51.462;14.346;2022-11-15T02:34:11;100060.63;;;5.15;100.00
29569;BME280;16501;51.462;14.346;2022-11-15T02:39:31;100072.22;;;5.26;100.00
29569;BME280;16501;51.462;14.346;2022-11-15T02:42:07;100065.88;;;5.25;100.00
29569;BME280;16501;51.462;14.346;2022-11-15T02:44:56;100051.53;;;5.27;100.00
29569;BME280;16501;51.462;14.346;2022-11-15T02:47:23;100060.19;;;5.29;100.00
29569;BME280;16501;51.462;14.346;2022-11-15T02:49:52;100042.19;;;5.21;100.00
29569;BME280;16501;51.462;14.346;2022-11-15T02:52:23;100034.34;;;5.03;100.00
29569;BME280;16501;51.462;14.346;2022-11-15T02:54:57;100060.75;;;5.24;100.00
29569;BME280;16501;51.462;14.346;2022-11-15T03:00:16;100046.94;;;5.20;100.00
29569;BME280;16501;51.462;14.346;2022-11-15T03:05:54;100047.81;;;5.17;100.00
29569;BME280;16501;51.462;14.346;2022-11-15T03:08:45;100039.94;;;5.16;100.00
29569;BME280;16501;51.462;14.346;2022-11-15T03:11:18;100046.19;;;5.20;100.00
29569;BME280;16501;51.462;14.346;2022-11-15T03:16:40;100002.66;;;5.00;100.00
29569;BME280;16501;51.462;14.346;2022-11-15T03:19:33;100038.88;;;5.26;100.00
29569;BME280;16501;51.462;14.346;2022-11-15T03:22:01;100030.97;;;5.24;100.00
29569;BME280;16501;51.462;14.346;2022-11-15T03:24:28;100022.38;;;5.19;100.00
29569;BME280;16501;51.462;14.346;2022-11-15T03:26:56;100007.25;;;5.07;100.00
29569;BME280;16501;51.462;14.346;2022-11-15T03:29:27;100014.25;;;5.12;100.00
29569;BME280;16501;51.462;14.346;2022-11-15T03:32:05;100017.72;;;5.16;100.00
29569;BME280;16501;51.462;14.346;2022-11-15T03:35:08;100013.69;;;5.17;100.00
29569;BME280;16501;51.462;14.346;2022-11-15T03:40:04;99991.75;;;4.93;100.00
29569;BME280;16501;51.462;14.346;2022-11-15T03:42:42;100020.13;;;5.14;100.00
29569;BME280;16501;51.462;14.346;2022-11-15T03:45:19;100011.47;;;5.12;100.00
29569;BME280;16501;51.462;14.346;2022-11-15T03:47:51;99990.09;;;4.96;100.00
29569;BME280;16501;51.462;14.346;2022-11-15T03:50:20;99991.75;;;4.93;100.00
29569;BME280;16501;51.462;14.346;2022-11-15T03:52:48;99988.97;;;4.93;100.00
29569;BME280;16501;51.462;14.346;2022-11-15T03:55:19;100010.47;;;5.05;100.00
29569;BME280;16501;51.462;14.346;2022-11-15T03:57:45;99987.41;;;4.92;100.00
29569;BME280;16501;51.462;14.346;2022-11-15T04:00:11;99985.78;;;4.95;100.00
29569;BME280;16501;51.462;14.346;2022-11-15T04:02:36;99988.78;;;5.00;100.00
29569;BME280;16501;51.462;14.346;2022-11-15T04:05:02;100002.34;;;5.11;100.00
29569;BME280;16501;51.462;14.346;2022-11-15T04:07:27;100004.69;;;5.13;100.00
29569;BME280;16501;51.462;14.346;2022-11-15T04:09:52;99975.63;;;4.88;100.00
29569;BME280;16501;51.462;14.346;2022-11-15T04:12:27;99993.56;;;5.13;100.00
29569;BME280;16501;51.462;14.346;2022-11-15T04:17:44;99998.69;;;5.14;100.00
29569;BME280;16501;51.462;14.346;2022-11-15T04:20:20;100009.00;;;5.14;100.00
29569;BME280;16501;51.462;14.346;2022-11-15T04:23:13;100001.38;;;5.18;100.00
29569;BME280;16501;51.462;14.346;2022-11-15T04:25:59;99971.41;;;4.96;100.00
29569;BME280;16501;51.462;14.346;2022-11-15T04:28:25;99970.63;;;4.96;100.00
29569;BME280;16501;51.462;14.346;2022-11-15T04:30:51;99995.00;;;5.17;100.00
29569;BME280;16501;51.462;14.346;2022-11-15T04:33:16;99988.78;;;5.13;100.00
29569;BME280;16501;51.462;14.346;2022-11-15T04:35:42;99980.78;;;5.02;100.00
29569;BME280;16501;51.462;14.346;2022-11-15T04:38:09;99993.69;;;5.09;100.00
29569;BME280;16501;51.462;14.346;2022-11-15T04:40:36;99999.56;;;5.11;100.00
29569;BME280;16501;51.462;14.346;2022-11-15T04:43:02;99978.31;;;5.04;100.00
29569;BME280;16501;51.462;14.346;2022-11-15T04:45:28;99939.38;;;4.79;100.00
29569;BME280;16501;51.462;14.346;2022-11-15T04:47:53;99970.44;;;5.03;100.00
29569;BME280;16501;51.462;14.346;2022-11-15T04:50:18;99949.28;;;4.93;100.00
29569;BME280;16501;51.462;14.346;2022-11-15T04:52:51;99941.41;;;4.91;100.00
29569;BME280;16501;51.462;14.346;2022-11-15T04:55:17;99978.69;;;5.19;100.00
29569;BME280;16501;51.462;14.346;2022-11-15T04:57:42;99946.50;;;4.93;100.00
29569;BME280;16501;51.462;14.346;2022-11-15T05:00:10;99942.84;;;4.96;100.00
29569;BME280;16501;51.462;14.346;2022-11-15T05:02:36;99957.66;;;5.05;100.00
29569;BME280;16501;51.462;14.346;2022-11-15T05:05:20;99960.13;;;5.03;100.00
29569;BME280;16501;51.462;14.346;2022-11-15T05:07:46;99978.91;;;5.12;100.00
29569;BME280;16501;51.462;14.346;2022-11-15T05:10:11;99972.22;;;5.09;100.00
29569;BME280;16501;51.462;14.346;2022-11-15T05:12:36;99993.69;;;5.22;100.00
29569;BME280;16501;51.462;14.346;2022-11-15T05:15:02;99982.34;;;5.16;100.00
29569;BME280;16501;51.462;14.346;2022-11-15T05:17:27;99955.97;;;4.95;100.00
29569;BME280;16501;51.462;14.346;2022-11-15T05:19:52;99943.06;;;4.88;100.00
29569;BME280;16501;51.462;14.346;2022-11-15T05:22:18;99955.97;;;4.95;100.00
29569;BME280;16501;51.462;14.346;2022-11-15T05:24:44;99987.31;;;5.08;100.00
29569;BME280;16501;51.462;14.346;2022-11-15T05:27:09;99983.78;;;5.08;100.00
29569;BME280;16501;51.462;14.346;2022-11-15T05:29:34;99970.75;;;4.92;100.00
29569;BME280;16501;51.462;14.346;2022-11-15T05:32:00;99992.56;;;5.06;100.00
29569;BME280;16501;51.462;14.346;2022-11-15T05:34:26;99952.59;;;4.75;100.00
29569;BME280;16501;51.462;14.346;2022-11-15T05:36:52;99966.28;;;4.82;100.00
29569;BME280;16501;51.462;14.346;2022-11-15T05:39:17;99963.16;;;4.80;100.00
29569;BME280;16501;51.462;14.346;2022-11-15T05:41:45;99978.75;;;4.90;100.00
29569;BME280;16501;51.462;14.346;2022-11-15T05:44:16;99986.75;;;4.88;100.00
29569;BME280;16501;51.462;14.346;2022-11-15T05:46:43;99976.50;;;4.85;100.00
29569;BME280;16501;51.462;14.346;2022-11-15T05:49:13;99960.25;;;4.70;100.00
29569;BME280;16501;51.462;14.346;2022-11-15T05:51:41;99968.81;;;4.76;100.00
29569;BME280;16501;51.462;14.346;2022-11-15T05:54:08;99969.25;;;4.75;100.00
29569;BME280;16501;51.462;14.346;2022-11-15T05:56:35;99919.59;;;4.34;100.00
29569;BME280;16501;51.462;14.346;2022-11-15T05:59:01;99966.44;;;4.62;100.00
29569;BME280;16501;51.462;14.346;2022-11-15T06:01:27;99974.25;;;4.67;100.00
29569;BME280;16501;51.462;14.346;2022-11-15T06:03:52;99945.25;;;4.39;100.00
29569;BME280;16501;51.462;14.346;2022-11-15T06:06:18;99937.94;;;4.45;100.00
29569;BME280;16501;51.462;14.346;2022-11-15T06:08:43;99937.81;;;4.36;100.00
29569;BME280;16501;51.462;14.346;2022-11-15T06:11:08;99945.75;;;4.50;100.00
29569;BME280;16501;51.462;14.346;2022-11-15T06:13:34;99950.59;;;4.46;100.00
29569;BME280;16501;51.462;14.346;2022-11-15T06:15:59;99944.13;;;4.36;100.00
29569;BME280;16501;51.462;14.346;2022-11-15T06:18:25;99967.19;;;4.49;100.00
29569;BME280;16501;51.462;14.346;2022-11-15T06:20:50;99960.16;;;4.45;100.00
29569;BME280;16501;51.462;14.346;2022-11-15T06:23:15;99978.53;;;4.55;100.00
29569;BME280;16501;51.462;14.346;2022-11-15T06:25:41;99978.19;;;4.53;100.00
29569;BME280;16501;51.462;14.346;2022-11-15T06:28:06;99963.31;;;4.30;100.00
29569;BME280;16501;51.462;14.346;2022-11-15T06:30:31;99983.75;;;4.53;100.00
29569;BME280;16501;51.462;14.346;2022-11-15T06:33:01;99982.50;;;4.54;100.00
29569;BME280;16501;51.462;14.346;2022-11-15T06:35:27;99971.59;;;4.47;100.00
29569;BME280;16501;51.462;14.346;2022-11-15T06:37:52;99955.09;;;4.27;100.00
29569;BME280;16501;51.462;14.346;2022-11-15T06:40:17;99994.06;;;4.52;100.00
29569;BME280;16501;51.462;14.346;2022-11-15T06:42:43;99961.41;;;4.27;100.00
29569;BME280;16501;51.462;14.346;2022-11-15T06:45:08;99987.06;;;4.48;100.00
29569;BME280;16501;51.462;14.346;2022-11-15T06:47:33;99974.53;;;4.27;100.00
29569;BME280;16501;51.462;14.346;2022-11-15T06:49:59;99985.56;;;4.43;100.00
29569;BME280;16501;51.462;14.346;2022-11-15T06:52:24;100009.84;;;4.56;100.00
29569;BME280;16501;51.462;14.346;2022-11-15T06:54:49;99982.91;;;4.40;100.00
29569;BME280;16501;51.462;14.346;2022-11-15T06:57:15;99972.63;;;4.24;100.00
29569;BME280;16501;51.462;14.346;2022-11-15T06:59:40;100014.63;;;4.55;100.00
29569;BME280;16501;51.462;14.346;2022-11-15T07:02:05;100011.16;;;4.51;100.00
29569;BME280;16501;51.462;14.346;2022-11-15T07:04:30;99992.28;;;4.29;100.00
29569;BME280;16501;51.462;14.346;2022-11-15T07:06:56;100012.19;;;4.57;100.00
29569;BME280;16501;51.462;14.346;2022-11-15T07:09:21;99995.91;;;4.43;100.00
29569;BME280;16501;51.462;14.346;2022-11-15T07:11:46;100014.63;;;4.55;100.00
29569;BME280;16501;51.462;14.346;2022-11-15T07:14:11;100009.00;;;4.42;100.00
29569;BME280;16501;51.462;14.346;2022-11-15T07:16:37;99993.22;;;4.39;100.00
29569;BME280;16501;51.462;14.346;2022-11-15T07:19:02;100003.34;;;4.46;100.00
29569;BME280;16501;51.462;14.346;2022-11-15T07:21:28;99996.69;;;4.43;100.00
29569;BME280;16501;51.462;14.346;2022-11-15T07:23:53;99987.69;;;4.39;100.00
29569;BME280;16501;51.462;14.346;2022-11-15T07:26:18;100014.66;;;4.68;100.00
29569;BME280;16501;51.462;14.346;2022-11-15T07:28:43;100007.91;;;4.69;100.00
29569;BME280;16501;51.462;14.346;2022-11-15T07:31:08;100015.25;;;4.76;100.00
29569;BME280;16501;51.462;14.346;2022-11-15T07:33:34;99996.56;;;4.63;100.00
29569;BME280;16501;51.462;14.346;2022-11-15T07:36:01;100005.16;;;4.82;100.00
29569;BME280;16501;51.462;14.346;2022-11-15T07:38:28;99985.00;;;4.65;100.00
29569;BME280;16501;51.462;14.346;2022-11-15T07:40:58;100000.97;;;4.90;100.00
29569;BME280;16501;51.462;14.346;2022-11-15T07:43:24;99967.00;;;4.69;100.00
29569;BME280;16501;51.462;14.346;2022-11-15T07:45:50;99986.75;;;4.88;100.00
29569;BME280;16501;51.462;14.346;2022-11-15T07:48:15;99988.09;;;4.96;100.00
29569;BME280;16501;51.462;14.346;2022-11-15T07:50:41;99988.03;;;5.13;100.00
29569;BME280;16501;51.462;14.346;2022-11-15T07:53:07;99984.00;;;5.14;100.00
29569;BME280;16501;51.462;14.346;2022-11-15T07:55:33;99964.44;;;5.04;100.00
29569;BME280;16501;51.462;14.346;2022-11-15T07:58:06;99990.38;;;5.27;100.00
29569;BME280;16501;51.462;14.346;2022-11-15T08:00:32;99972.91;;;5.26;100.00
29569;BME280;16501;51.462;14.346;2022-11-15T08:03:05;99968.78;;;5.31;100.00
29569;BME280;16501;51.462;14.346;2022-11-15T08:05:30;99953.25;;;5.21;100.00
29569;BME280;16501;51.462;14.346;2022-11-15T08:07:56;99961.56;;;5.34;100.00
29569;BME280;16501;51.462;14.346;2022-11-15T08:10:21;99969.91;;;5.46;100.00
29569;BME280;16501;51.462;14.346;2022-11-15T08:12:46;99987.38;;;5.73;100.00
29569;BME280;16501;51.462;14.346;2022-11-15T08:15:12;99973.38;;;5.63;100.00
29569;BME280;16501;51.462;14.346;2022-11-15T08:17:37;99981.38;;;5.87;100.00
29569;BME280;16501;51.462;14.346;2022-11-15T08:20:02;99984.25;;;5.96;100.00
29569;BME280;16501;51.462;14.346;2022-11-15T08:22:28;99989.59;;;6.03;100.00
29569;BME280;16501;51.462;14.346;2022-11-15T08:24:53;99989.16;;;6.05;100.00
29569;BME280;16501;51.462;14.346;2022-11-15T08:27:19;99964.53;;;6.03;100.00
29569;BME280;16501;51.462;14.346;2022-11-15T08:29:44;99963.84;;;6.12;100.00
29569;BME280;16501;51.462;14.346;2022-11-15T08:32:10;99981.50;;;6.31;100.00
29569;BME280;16501;51.462;14.346;2022-11-15T08:34:37;99980.81;;;6.40;100.00
29569;BME280;16501;51.462;14.346;2022-11-15T08:37:02;99947.44;;;6.27;100.00
29569;BME280;16501;51.462;14.346;2022-11-15T08:39:27;99977.00;;;6.47;100.00
29569;BME280;16501;51.462;14.346;2022-11-15T08:41:52;99953.28;;;6.42;100.00
29569;BME280;16501;51.462;14.346;2022-11-15T08:44:18;99958.03;;;6.54;100.00
29569;BME280;16501;51.462;14.346;2022-11-15T08:46:45;99971.19;;;6.76;100.00
29569;BME280;16501;51.462;14.346;2022-11-15T08:49:11;99971.16;;;6.98;100.00
29569;BME280;16501;51.462;14.346;2022-11-15T08:51:36;99954.66;;;7.04;100.00
29569;BME280;16501;51.462;14.346;2022-11-15T08:54:01;99962.66;;;7.33;100.00
29569;BME280;16501;51.462;14.346;2022-11-15T08:56:26;99962.72;;;7.83;100.00
29569;BME280;16501;51.462;14.346;2022-11-15T08:58:52;99979.88;;;8.77;100.00
29569;BME280;16501;51.462;14.346;2022-11-15T09:01:19;99954.28;;;9.64;100.00
29569;BME280;16501;51.462;14.346;2022-11-15T09:03:44;99979.22;;;10.59;100.00
29569;BME280;16501;51.462;14.346;2022-11-15T09:06:10;99975.03;;;11.08;97.04
29569;BME280;16501;51.462;14.346;2022-11-15T09:08:35;99978.59;;;11.53;92.27
29569;BME280;16501;51.462;14.346;2022-11-15T09:11:05;99994.81;;;12.14;89.28
29569;BME280;16501;51.462;14.346;2022-11-15T09:13:31;99990.53;;;12.39;86.04
29569;BME280;16501;51.462;14.346;2022-11-15T09:15:58;99988.00;;;12.88;84.79
29569;BME280;16501;51.462;14.346;2022-11-15T09:18:24;99976.63;;;13.29;82.97
29569;BME280;16501;51.462;14.346;2022-11-15T09:20:49;99983.44;;;13.86;79.56
29569;BME280;16501;51.462;14.346;2022-11-15T09:23:14;99982.31;;;14.10;78.75
29569;BME280;16501;51.462;14.346;2022-11-15T09:25:40;100003.81;;;14.56;76.59
29569;BME280;16501;51.462;14.346;2022-11-15T09:28:06;99996.16;;;14.62;73.93
29569;BME280;16501;51.462;14.346;2022-11-15T09:30:32;100001.38;;;14.92;73.01
29569;BME280;16501;51.462;14.346;2022-11-15T09:32:57;100000.63;;;15.03;72.26
29569;BME280;16501;51.462;14.346;2022-11-15T09:35:22;99994.25;;;15.36;70.03
29569;BME280;16501;51.462;14.346;2022-11-15T09:37:48;99987.56;;;15.28;70.44
29569;BME280;16501;51.462;14.346;2022-11-15T09:40:14;99992.19;;;15.14;71.36
29569;BME280;16501;51.462;14.346;2022-11-15T09:43:08;99982.69;;;15.17;71.27
29569;BME280;16501;51.462;14.346;2022-11-15T09:48:50;99977.00;;;15.12;71.97
29569;BME280;16501;51.462;14.346;2022-11-15T09:51:27;99970.09;;;15.35;70.48
29569;BME280;16501;51.462;14.346;2022-11-15T09:56:56;99991.84;;;16.25;66.98
29569;BME280;16501;51.462;14.346;2022-11-15T10:04:59;99967.53;;;15.77;66.82
29569;BME280;16501;51.462;14.346;2022-11-15T10:07:31;99972.13;;;15.86;66.28
29569;BME280;16501;51.462;14.346;2022-11-15T10:10:11;99975.66;;;16.14;65.74
29569;BME280;16501;51.462;14.346;2022-11-15T10:12:45;99963.06;;;16.15;66.46
29569;BME280;16501;51.462;14.346;2022-11-15T10:15:15;99959.41;;;16.26;62.68
29569;BME280;16501;51.462;14.346;2022-11-15T10:18:03;99976.44;;;16.15;62.92
29569;BME280;16501;51.462;14.346;2022-11-15T10:20:38;99956.44;;;15.96;64.85
29569;BME280;16501;51.462;14.346;2022-11-15T10:23:11;99965.94;;;15.98;62.55
29569;BME280;16501;51.462;14.346;2022-11-15T10:25:38;99947.78;;;16.41;63.68
29569;BME280;16501;51.462;14.346;2022-11-15T10:28:20;99954.69;;;16.46;62.00
29569;BME280;16501;51.462;14.346;2022-11-15T10:30:52;99945.72;;;16.89;60.67
29569;BME280;16501;51.462;14.346;2022-11-15T10:33:34;99952.69;;;16.82;60.52
29569;BME280;16501;51.462;14.346;2022-11-15T10:41:18;99925.53;;;17.64;59.30
29569;BME280;16501;51.462;14.346;2022-11-15T10:43:44;99928.00;;;17.49;58.45
29569;BME280;16501;51.462;14.346;2022-11-15T10:46:21;99935.59;;;17.35;58.49
29569;BME280;16501;51.462;14.346;2022-11-15T10:48:47;99922.28;;;17.79;57.98
29569;BME280;16501;51.462;14.346;2022-11-15T10:51:27;99924.44;;;17.12;57.36
29569;BME280;16501;51.462;14.346;2022-11-15T10:53:54;99923.09;;;17.74;58.49
29569;BME280;16501;51.462;14.346;2022-11-15T10:56:21;99916.16;;;18.00;58.52
29569;BME280;16501;51.462;14.346;2022-11-15T10:58:53;99925.81;;;18.10;55.77
29569;BME280;16501;51.462;14.346;2022-11-15T11:01:20;99915.09;;;18.03;56.20
29569;BME280;16501;51.462;14.346;2022-11-15T11:04:04;99903.84;;;17.67;56.18
29569;BME280;16501;51.462;14.346;2022-11-15T11:06:30;99885.00;;;17.45;57.97
29569;BME280;16501;51.462;14.346;2022-11-15T11:11:22;99897.66;;;17.13;59.29
29569;BME280;16501;51.462;14.346;2022-11-15T11:13:48;99898.72;;;17.10;58.55
29569;BME280;16501;51.462;14.346;2022-11-15T11:19:12;99901.16;;;17.25;57.75
29569;BME280;16501;51.462;14.346;2022-11-15T11:22:09;99890.03;;;17.58;57.92
29569;BME280;16501;51.462;14.346;2022-11-15T11:24:44;99886.19;;;18.04;57.04
29569;BME280;16501;51.462;14.346;2022-11-15T11:27:35;99893.81;;;17.90;57.55
29569;BME280;16501;51.462;14.346;2022-11-15T11:41:13;99863.78;;;18.01;55.62
29569;BME280;16501;51.462;14.346;2022-11-15T11:49:20;99851.97;;;17.97;55.56
29569;BME280;16501;51.462;14.346;2022-11-15T11:52:29;99854.59;;;17.45;55.78
29569;BME280;16501;51.462;14.346;2022-11-15T11:54:58;99842.91;;;17.00;57.72
29569;BME280;16501;51.462;14.346;2022-11-15T11:57:47;99831.09;;;16.65;58.33
29569;BME280;16501;51.462;14.346;2022-11-15T12:00:22;99838.28;;;16.25;57.96
29569;BME280;16501;51.462;14.346;2022-11-15T12:05:41;99835.19;;;15.70;62.29
29569;BME280;16501;51.462;14.346;2022-11-15T12:08:29;99827.78;;;15.55;63.27
29569;BME280;16501;51.462;14.346;2022-11-15T12:11:03;99812.13;;;15.43;63.00
29569;BME280;16501;51.462;14.346;2022-11-15T12:13:49;99819.09;;;15.42;63.19
29569;BME280;16501;51.462;14.346;2022-11-15T12:16:26;99812.16;;;15.37;64.38
29569;BME280;16501;51.462;14.346;2022-11-15T12:18:53;99814.00;;;15.23;63.50
29569;BME280;16501;51.462;14.346;2022-11-15T12:24:29;99804.75;;;15.23;65.79
29569;BME280;16501;51.462;14.346;2022-11-15T12:27:01;99809.59;;;15.34;66.37
29569;BME280;16501;51.462;14.346;2022-11-15T12:29:36;99783.19;;;15.20;64.30
29569;BME280;16501;51.462;14.346;2022-11-15T12:32:03;99773.19;;;15.13;63.69
29569;BME280;16501;51.462;14.346;2022-11-15T12:34:39;99796.03;;;15.21;64.47
29569;BME280;16501;51.462;14.346;2022-11-15T12:42:41;99796.78;;;15.21;66.46
29569;BME280;16501;51.462;14.346;2022-11-15T12:45:31;99786.50;;;15.35;66.21
29569;BME280;16501;51.462;14.346;2022-11-15T12:53:28;99777.84;;;15.86;63.90
29569;BME280;16501;51.462;14.346;2022-11-15T12:58:42;99773.81;;;16.53;61.02
29569;BME280;16501;51.462;14.346;2022-11-15T13:01:09;99766.94;;;16.73;57.81
29569;BME280;16501;51.462;14.346;2022-11-15T13:03:34;99761.50;;;17.06;57.74
29569;BME280;16501;51.462;14.346;2022-11-15T13:06:03;99770.75;;;17.31;55.75
29569;BME280;16501;51.462;14.346;2022-11-15T13:08:44;99765.22;;;17.63;54.67
29569;BME280;16501;51.462;14.346;2022-11-15T13:11:48;99764.44;;;17.87;53.19
29569;BME280;16501;51.462;14.346;2022-11-15T13:19:53;99755.06;;;17.74;53.94
29569;BME280;16501;51.462;14.346;2022-11-15T13:22:24;99736.56;;;17.04;56.71
29569;BME280;16501;51.462;14.346;2022-11-15T13:25:16;99748.28;;;16.23;59.75
29569;BME280;16501;51.462;14.346;2022-11-15T13:27:46;99740.63;;;15.71;62.19
29569;BME280;16501;51.462;14.346;2022-11-15T13:30:20;99745.88;;;15.44;63.99
29569;BME280;16501;51.462;14.346;2022-11-15T13:32:46;99738.25;;;15.27;64.75
29569;BME280;16501;51.462;14.346;2022-11-15T13:35:19;99743.19;;;15.04;66.41
29569;BME280;16501;51.462;14.346;2022-11-15T13:37:45;99734.97;;;15.01;67.04
29569;BME280;16501;51.462;14.346;2022-11-15T13:40:34;99731.66;;;14.85;67.85
29569;BME280;16501;51.462;14.346;2022-11-15T13:45:42;99729.63;;;14.52;69.88
29569;BME280;16501;51.462;14.346;2022-11-15T13:48:07;99717.84;;;14.53;70.03
29569;BME280;16501;51.462;14.346;2022-11-15T13:50:35;99704.75;;;14.50;70.25
29569;BME280;16501;51.462;14.346;2022-11-15T13:53:03;99697.56;;;14.83;69.34
29569;BME280;16501;51.462;14.346;2022-11-15T13:55:31;99705.19;;;15.05;68.34
29569;BME280;16501;51.462;14.346;2022-11-15T13:58:02;99720.22;;;15.95;65.77
29569;BME280;16501;51.462;14.346;2022-11-15T14:00:40;99712.53;;;16.86;62.11
29569;BME280;16501;51.462;14.346;2022-11-15T14:03:23;99706.75;;;17.41;58.85
29569;BME280;16501;51.462;14.346;2022-11-15T14:06:09;99716.66;;;17.72;57.68
29569;BME280;16501;51.462;14.346;2022-11-15T14:08:40;99713.75;;;17.59;56.42
29569;BME280;16501;51.462;14.346;2022-11-15T14:11:15;99721.16;;;17.81;56.63
29569;BME280;16501;51.462;14.346;2022-11-15T14:13:42;99716.34;;;17.76;56.39
29569;BME280;16501;51.462;14.346;2022-11-15T14:16:33;99704.16;;;17.00;57.36
29569;BME280;16501;51.462;14.346;2022-11-15T14:18:59;99720.69;;;16.35;59.47
29569;BME280;16501;51.462;14.346;2022-11-15T14:21:24;99705.94;;;15.70;61.70
29569;BME280;16501;51.462;14.346;2022-11-15T14:23:49;99699.53;;;15.11;63.71
29569;BME280;16501;51.462;14.346;2022-11-15T14:26:48;99711.66;;;14.83;65.85